SPU weather

Split Airport
Split, Split-Dalmatia County, Croatia

Public forecast

Using degrees Celsius for public forecast. Weather courtesy of forecast.io.

Current aviation weather report (METAR) for Split Airport

Retrieved 2019/12/05 19:30 UTC (0 seconds ago):

LDSP 051930Z 33005KT 9999 BKN045 10/03 Q1026 NOSIG

Aviation forecast (TAF) for Split Airport

Retrieved 2019/12/05 18:27 UTC (41 minutes ago):

TAF LDSP 051725Z 0518/0618 35006KT 9999 BKN040 TX13/0612Z TN07/0604Z PROB40 TEMPO 0610/0618 11008KT 4500 RA